Terminal Aerodrome Forecast
Issued by NWS

Home | Current Version | Previous Version | Text Only | Print | Product List | Glossary On
Versions: 1 2 3 4 5 6 7 8 9 10 11 12
000
FTUS44 KCRP 182333
TAFALI
TAF
KALI 182333Z 1900/1924 08012KT P6SM BKN250
     FM190300 13006KT P6SM SCT025 BKN250
     FM190900 06002KT 5SM BR SCT020 BKN250
      TEMPO 1910/1913 2SM BR
     FM191400 03005KT P6SM SCT030 BKN250
      TEMPO 1914/1916 BKN030
     FM191600 09008KT P6SM VCSH SCT035 BKN150 PROB30 1920/1922
      VRB15G25KT 5SM -TSRA BKN035CB OVC100
     FM192200 11010G18KT P6SM SCT040 BKN200=

USA.gov is the U.S. government's official web portal to all federal, state and local government web resources and services.